Crumpler, NC

12:33 AM EDT on October 20, 2019 (GMT -0400)
Chestnut Hill | | Change Station

Elev 2703 ft 36.51 °N, 81.35 °W | Updated 17 seconds ago

Rain
Rain
45.7 °F
Feels Like 46 °F
N
0
Wind Variable Wind from NNE
Gusts 0.0 mph

Today
High -- | Low -- °F
--% Chance of Precip.
Yesterday
High -- | Low -- °F
Precip. -- in
Pressure 29.94 in
Visibility 2.5 miles
Clouds Mostly Cloudy 300 ft
Overcast 800 ft
Windchill 46 °F
Dew Point 45 °F
Humidity 99%
Rainfall 0.14 in
Snow Depth Not available.
7:37 AM 6:43 PM
Waning Gibbous, 64% visible
METAR KGEV 200415Z AUTO 34003KT 2 1/2SM RA BKN003 OVC008 07/07 A2994 RMK AO2 P0007 T00650065
Pressure 29.94 in
Visibility 2.5 miles
Clouds Mostly Cloudy 300 ft
Overcast 800 ft
Windchill 46 °F
Dew Point 45 °F
Humidity 99%
Rainfall 0.14 in
Snow Depth Not available.
7:37 AM 6:43 PM
Waning Gibbous, 64% visible
METAR KGEV 200415Z AUTO 34003KT 2 1/2SM RA BKN003 OVC008 07/07 A2994 RMK AO2 P0007 T00650065

Get Severe Weather Alerts

Thanks for signing up!

Be on the lookout for a verification email in your inbox.

You'll start receiving the daily forecast at 6 AM.

×

10-Day Weather Forecast

Almanac

Astronomy

Oct. 20, 2019 Rise Set
Actual Time
Civil Twilight
Nautical Twilight
Astronomical Twilight
Moon
Length of Visible Light
Length of Day
Tomorrow will be .
, % of the Moon is Illuminated

Today's Extremes

State Highs State Lows

Community

WunderPhotos

Category 6

Welcome to Category 6. This is the collective home for Weather Underground's featured writeups by Dr. Jeff Masters (right), Bob Henson (left), Chris Burt, and other regular contributors.

Nearby

Air Quality

  Air Quality AQ Index Pollutant
Not available.

Snow Depth

Station Depth Elevation

Earthquake Activity

City Distance Mag. Time & Date
Minimum magnitude displayed is 2.5.

Coastal Water Temperatures

Place Temperature

Stations

Nearby Weather Stations

Station Location Temp. Windchill Dew Point Humidity Wind Precip. Elev Updated Type
                   

Watches & Warnings

There are currently no watches in effect.